This is the latest recevied weather packets stored in our database for station/object SP2WPY-13. If no packets are shown the sender has not sent any weather packets the latest 10 day(s).
| Time | Temp. | Humidity | Pressure | Rain* | Wind** | Luminosity | Snow |
|---|---|---|---|---|---|---|---|
| 1778153162 | 8.89° C | 94% | 1017.3 hPa | - | - | - | - |
| 1778152887 | 8.89° C | 91% | 1017.3 hPa | - | - | - | - |
| 1778152568 | 9.44° C | 90% | 1017.4 hPa | - | - | - | - |
| 1778152294 | 9.44° C | 89% | 1017.3 hPa | - | - | - | - |
| 1778151974 | 9.44° C | 88% | 1017.3 hPa | - | - | - | - |
| 1778151701 | 9.44° C | 89% | 1017.4 hPa | - | - | - | - |
| 1778151381 | 10° C | 87% | 1017.3 hPa | - | - | - | - |
| 1778151061 | 9.44° C | 89% | 1017.3 hPa | - | - | - | - |
| 1778150788 | 9.44° C | 88% | 1017.4 hPa | - | - | - | - |
| 1778150467 | 9.44° C | 90% | 1017.3 hPa | - | - | - | - |
| 1778150194 | 8.89° C | 91% | 1017.3 hPa | - | - | - | - |
| 1778149873 | 8.89° C | 90% | 1017.1 hPa | - | - | - | - |
| 1778149601 | 8.89° C | 90% | 1017 hPa | - | - | - | - |
| 1778149280 | 8.89° C | 91% | 1016.8 hPa | - | - | - | - |
| 1778149006 | 8.89° C | 92% | 1016.9 hPa | - | - | - | - |
| 1778148687 | 8.89° C | 94% | 1016.8 hPa | - | - | - | - |
| 1778148368 | 8.89° C | 95% | 1016.8 hPa | - | - | - | - |
| 1778148093 | 8.89° C | 96% | 1016.6 hPa | - | - | - | - |
| 1778147774 | 8.33° C | 100% | 1016.6 hPa | - | - | - | - |
| 1778147500 | 7.78° C | 100% | 1016.5 hPa | - | - | - | - |
| 1778147180 | 7.78° C | 100% | 1016.4 hPa | - | - | - | - |
| 1778146860 | 7.78° C | 100% | 1016.4 hPa | - | - | - | - |
| 1778146587 | 7.78° C | 100% | 1016.4 hPa | - | - | - | - |
| 1778146267 | 7.78° C | 100% | 1016.3 hPa | - | - | - | - |
| 1778145992 | 7.78° C | 100% | 1016.3 hPa | - | - | - | - |
* Rain since midnight (hover to see other rain measurements)
** Current wind speed in m/s (hover to see current wind gust speed)